Time;durP1;ratioP1;P1;durP2;ratioP2;P2;SDS_P1;SDS_P2;PMS_P1;PMS_P2;Temp;Humidity;BMP_temperature;BMP_pressure;BME280_temperature;BME280_humidity;BME280_pressure;Samples;Min_cycle;Max_cycle;Signal;HPM_P1;HPM_P2
2021/01/13 00:01:39;;;;;;;9.07;5.93;;;3.30;96.10;;;;;;5073705;28;20468;-75
2021/01/13 00:04:06;;;;;;;11.30;6.00;;;3.30;96.10;;;;;;5072579;28;20798;-75
2021/01/13 00:06:33;;;;;;;7.43;5.30;;;3.20;96.10;;;;;;5073811;28;20455;-75
2021/01/13 00:09:00;;;;;;;15.40;6.87;;;3.20;96.20;;;;;;5073830;28;20488;-75
2021/01/13 00:11:26;;;;;;;14.50;4.87;;;3.20;96.20;;;;;;5073289;28;20476;-75
2021/01/13 00:13:52;;;;;;;10.97;5.00;;;3.20;96.20;;;;;;5073605;28;20440;-75
2021/01/13 00:16:19;;;;;;;18.80;5.83;;;3.30;96.20;;;;;;5073694;28;20429;-75
2021/01/13 00:18:48;;;;;;;10.10;5.60;;;3.20;96.20;;;;;;5073581;28;20483;-75
2021/01/13 00:21:15;;;;;;;12.23;6.60;;;3.20;96.20;;;;;;5073513;28;20465;-75
2021/01/13 00:23:45;;;;;;;13.67;5.40;;;3.20;96.30;;;;;;5073552;28;20437;-75
2021/01/13 00:26:18;;;;;;;11.30;5.60;;;3.10;96.40;;;;;;5073529;28;20448;-75
2021/01/13 00:28:44;;;;;;;9.00;4.80;;;3.10;96.50;;;;;;5073482;28;20431;-75
2021/01/13 00:31:13;;;;;;;11.07;6.50;;;3.10;96.60;;;;;;5073433;28;20465;-75
2021/01/13 00:33:40;;;;;;;13.60;6.13;;;3.10;96.60;;;;;;5073442;28;20487;-75
2021/01/13 00:36:07;;;;;;;11.67;5.90;;;3.10;96.60;;;;;;5073381;28;20448;-75
2021/01/13 00:38:33;;;;;;;11.90;5.93;;;3.20;96.50;;;;;;5073329;28;20563;-75
2021/01/13 00:41:00;;;;;;;18.03;7.80;;;3.20;96.50;;;;;;5073007;28;20529;-75
2021/01/13 00:43:26;;;;;;;12.00;6.60;;;3.10;96.40;;;;;;5073339;28;20457;-75
2021/01/13 00:45:52;;;;;;;12.60;6.87;;;3.10;96.40;;;;;;5073286;28;20447;-75
2021/01/13 00:48:18;;;;;;;13.77;6.73;;;3.10;96.40;;;;;;5073249;28;20493;-75
2021/01/13 00:50:45;;;;;;;12.73;7.13;;;3.10;96.40;;;;;;5073290;28;21019;-75
2021/01/13 00:53:12;;;;;;;12.63;7.73;;;3.10;96.30;;;;;;5073829;28;20448;-75
2021/01/13 00:55:38;;;;;;;10.60;6.43;;;3.10;96.50;;;;;;5073004;28;20968;-75
2021/01/13 00:58:04;;;;;;;13.93;6.90;;;3.00;96.50;;;;;;5073156;28;20484;-75
2021/01/13 01:00:30;;;;;;;14.83;7.07;;;3.00;96.50;;;;;;5073071;28;20475;-75
2021/01/13 01:02:57;;;;;;;15.23;7.83;;;3.00;96.60;;;;;;5073134;28;20451;-74
2021/01/13 01:05:23;;;;;;;13.40;7.70;;;3.00;96.60;;;;;;5073175;28;20462;-75
2021/01/13 01:07:50;;;;;;;13.00;7.00;;;3.00;96.50;;;;;;5073129;28;20453;-75
2021/01/13 01:10:19;;;;;;;15.10;8.37;;;3.00;96.60;;;;;;5072934;28;20525;-75
2021/01/13 01:12:46;;;;;;;20.00;8.80;;;2.90;96.60;;;;;;5073170;28;20432;-75
2021/01/13 01:15:13;;;;;;;18.60;9.53;;;3.00;96.80;;;;;;5074820;28;20430;-75
2021/01/13 01:17:39;;;;;;;13.80;8.73;;;2.90;96.80;;;;;;5076869;28;20444;-75
2021/01/13 01:20:07;;;;;;;23.50;8.83;;;3.00;96.80;;;;;;5076793;28;20445;-75
2021/01/13 01:22:33;;;;;;;12.90;9.90;;;3.00;96.70;;;;;;5076843;28;20458;-75
2021/01/13 01:25:00;;;;;;;17.00;8.70;;;3.00;96.70;;;;;;5076799;28;20444;-75
2021/01/13 01:27:26;;;;;;;24.57;9.17;;;3.00;96.80;;;;;;5076703;28;20522;-75
2021/01/13 01:29:52;;;;;;;14.23;9.17;;;3.00;96.80;;;;;;5076637;28;20799;-75
2021/01/13 01:32:18;;;;;;;19.73;8.93;;;3.00;96.80;;;;;;5076575;28;20527;-75
2021/01/13 01:34:45;;;;;;;14.37;8.87;;;3.00;96.80;;;;;;5076584;28;20440;-75
2021/01/13 01:37:11;;;;;;;15.93;9.57;;;3.00;96.90;;;;;;5076581;28;20435;-75
2021/01/13 01:39:37;;;;;;;18.77;9.70;;;3.00;96.90;;;;;;5076421;28;20479;-75
2021/01/13 01:42:04;;;;;;;17.23;9.90;;;3.00;96.90;;;;;;5076402;28;20463;-75
2021/01/13 01:44:30;;;;;;;18.13;9.73;;;3.10;97.00;;;;;;5076458;28;20453;-75
2021/01/13 01:47:04;;;;;;;15.00;11.07;;;3.10;97.00;;;;;;5076352;28;20443;-74
2021/01/13 01:49:32;;;;;;;15.37;10.10;;;3.10;97.30;;;;;;5076373;28;20421;-75
2021/01/13 01:52:06;;;;;;;24.43;10.33;;;3.10;97.00;;;;;;5076235;28;20487;-75
2021/01/13 01:54:35;;;;;;;15.50;9.07;;;3.10;96.90;;;;;;5076339;28;20424;-75
2021/01/13 01:57:04;;;;;;;25.63;10.70;;;3.10;97.20;;;;;;5076230;28;20475;-75
2021/01/13 01:59:48;;;;;;;15.77;10.60;;;3.10;96.80;;;;;;5075768;28;20514;-74
2021/01/13 02:02:17;;;;;;;14.53;10.20;;;3.10;96.80;;;;;;5076127;28;20428;-75
2021/01/13 02:04:45;;;;;;;15.47;10.60;;;3.10;96.80;;;;;;5075844;28;20937;-75
2021/01/13 02:07:30;;;;;;;17.63;10.67;;;3.10;96.70;;;;;;5076068;28;20452;-75
2021/01/13 02:10:03;;;;;;;23.33;11.80;;;3.10;96.80;;;;;;5075513;28;20893;-75
2021/01/13 02:12:32;;;;;;;17.10;9.30;;;3.10;96.70;;;;;;5075701;28;20429;-75
2021/01/13 02:15:00;;;;;;;20.90;10.30;;;3.10;96.70;;;;;;5075898;28;20444;-75
2021/01/13 02:17:32;;;;;;;19.00;10.70;;;3.10;96.70;;;;;;5075872;28;20451;-75
2021/01/13 02:20:13;;;;;;;14.23;10.13;;;3.10;96.80;;;;;;5075691;28;20553;-75
2021/01/13 02:22:56;;;;;;;20.23;11.23;;;3.10;96.70;;;;;;5075814;28;20428;-75
2021/01/13 02:26:07;;;;;;;22.57;10.43;;;3.10;96.70;;;;;;5075637;28;20505;-75
2021/01/13 02:28:55;;;;;;;23.63;12.30;;;3.10;96.70;;;;;;5075670;28;20461;-75
2021/01/13 02:31:38;;;;;;;17.20;12.00;;;3.10;96.80;;;;;;5075264;28;21067;-74
2021/01/13 02:34:16;;;;;;;16.43;10.93;;;3.10;96.70;;;;;;5075274;28;20431;-75
2021/01/13 02:37:32;;;;;;;16.73;10.07;;;3.10;96.70;;;;;;5076049;28;20460;-75
2021/01/13 02:39:58;;;;;;;15.20;11.20;;;3.00;96.80;;;;;;5074945;28;20479;-75
2021/01/13 02:42:29;;;;;;;19.10;11.50;;;3.00;96.90;;;;;;5075379;28;20804;-75
2021/01/13 02:45:08;;;;;;;19.43;10.63;;;3.10;97.00;;;;;;5075366;28;20425;-75
2021/01/13 02:48:00;;;;;;;20.60;11.33;;;3.00;97.00;;;;;;5074962;28;20798;-75
2021/01/13 02:50:28;;;;;;;21.13;10.73;;;3.10;97.00;;;;;;5074914;28;20524;-75
2021/01/13 02:53:21;;;;;;;25.63;10.87;;;3.10;96.80;;;;;;5075146;28;20443;-75
2021/01/13 02:56:04;;;;;;;21.07;11.03;;;3.10;96.80;;;;;;5057897;28;20456;-75
2021/01/13 02:58:35;;;;;;;19.70;11.33;;;3.10;96.80;;;;;;5074994;28;20468;-74
2021/01/13 03:01:04;;;;;;;21.17;11.13;;;3.10;96.80;;;;;;5074666;28;21012;-75
2021/01/13 03:03:32;;;;;;;18.73;12.33;;;3.10;96.80;;;;;;5075249;28;20521;-75
2021/01/13 03:06:05;;;;;;;21.87;11.77;;;3.10;96.80;;;;;;5074884;28;20476;-75
2021/01/13 03:08:55;;;;;;;17.03;10.70;;;3.10;96.70;;;;;;5074903;28;20460;-75
2021/01/13 03:11:22;;;;;;;18.13;11.60;;;3.10;96.80;;;;;;5074476;28;20989;-75
2021/01/13 03:13:49;;;;;;;16.47;11.17;;;3.10;96.80;;;;;;5074758;28;20447;-75
2021/01/13 03:16:17;;;;;;;15.13;11.73;;;3.10;96.60;;;;;;5074687;28;20455;-75
2021/01/13 03:18:58;;;;;;;25.50;11.47;;;3.10;96.70;;;;;;5074535;28;20538;-75
2021/01/13 03:21:37;;;;;;;18.10;11.37;;;3.10;96.80;;;;;;5074457;28;20470;-75
2021/01/13 03:24:13;;;;;;;17.53;12.20;;;3.10;96.80;;;;;;5074214;28;20902;-75
2021/01/13 03:26:45;;;;;;;22.60;11.07;;;3.10;96.90;;;;;;5074535;28;20787;-75
2021/01/13 03:29:17;;;;;;;20.87;11.23;;;3.10;97.00;;;;;;5074457;28;20835;-75
2021/01/13 03:31:55;;;;;;;22.13;11.70;;;3.10;97.10;;;;;;5074076;28;20502;-75
2021/01/13 03:34:27;;;;;;;21.40;11.80;;;3.10;97.10;;;;;;5074077;28;20924;-75
2021/01/13 03:36:58;;;;;;;16.43;11.80;;;3.10;97.10;;;;;;5074354;28;20508;-75
2021/01/13 03:39:31;;;;;;;23.40;12.90;;;3.10;97.10;;;;;;5074069;28;20490;-75
2021/01/13 03:42:11;;;;;;;23.93;11.40;;;3.00;97.20;;;;;;5074184;28;20526;-75
2021/01/13 03:44:38;;;;;;;14.63;10.33;;;3.00;97.20;;;;;;5074177;28;20431;-75
2021/01/13 03:47:32;;;;;;;12.63;10.33;;;3.00;97.30;;;;;;5073769;28;20960;-75
2021/01/13 03:50:10;;;;;;;16.33;11.53;;;3.10;97.40;;;;;;5074003;28;20438;-74
2021/01/13 03:52:39;;;;;;;16.13;11.40;;;3.10;97.40;;;;;;5074056;28;20431;-75
2021/01/13 03:55:07;;;;;;;18.33;11.00;;;3.10;97.40;;;;;;5074028;28;20440;-75
2021/01/13 03:58:01;;;;;;;20.17;10.93;;;3.10;97.30;;;;;;5073641;28;20448;-75
2021/01/13 04:00:30;;;;;;;19.67;10.00;;;3.10;97.50;;;;;;5073850;28;20471;-75
2021/01/13 04:03:11;;;;;;;16.87;9.87;;;3.20;97.40;;;;;;5073839;28;20463;-75
2021/01/13 04:05:51;;;;;;;19.27;10.90;;;3.20;97.30;;;;;;5073864;28;20429;-75
2021/01/13 04:08:19;;;;;;;19.77;10.73;;;3.20;97.30;;;;;;5073785;28;20419;-75
2021/01/13 04:10:45;;;;;;;16.23;11.20;;;3.10;97.30;;;;;;5073970;28;20479;-75
2021/01/13 04:13:33;;;;;;;14.73;9.60;;;3.20;97.40;;;;;;5073646;28;20444;-75
2021/01/13 04:16:00;;;;;;;19.80;11.80;;;3.20;97.30;;;;;;5073394;28;20443;-75
2021/01/13 04:18:28;;;;;;;15.23;10.77;;;3.20;97.30;;;;;;5073590;28;20484;-76
2021/01/13 04:20:55;;;;;;;12.90;10.00;;;3.20;97.30;;;;;;5073580;28;20484;-75
2021/01/13 04:23:22;;;;;;;19.50;11.07;;;3.30;97.20;;;;;;5073272;28;20961;-75
2021/01/13 04:25:49;;;;;;;23.20;10.80;;;3.30;97.20;;;;;;5073621;28;20447;-75
2021/01/13 04:28:16;;;;;;;19.03;10.97;;;3.30;97.10;;;;;;5073538;28;20453;-75
2021/01/13 04:30:43;;;;;;;15.67;10.93;;;3.30;97.10;;;;;;5073506;28;20469;-75
2021/01/13 04:33:10;;;;;;;18.73;10.33;;;3.30;97.10;;;;;;5073432;28;20447;-75
2021/01/13 04:35:37;;;;;;;18.40;10.33;;;3.30;97.10;;;;;;5073531;28;20451;-75
2021/01/13 04:38:04;;;;;;;17.63;11.60;;;3.30;97.20;;;;;;5073437;28;20452;-75
2021/01/13 04:40:35;;;;;;;18.50;11.57;;;3.30;97.20;;;;;;5073442;28;20471;-75
2021/01/13 04:43:05;;;;;;;15.10;11.10;;;3.30;97.20;;;;;;5073505;28;20432;-75
2021/01/13 04:45:39;;;;;;;18.23;11.30;;;3.30;97.10;;;;;;5073529;28;20457;-75
2021/01/13 04:48:07;;;;;;;16.30;11.57;;;3.30;97.20;;;;;;5073425;28;20917;-75
2021/01/13 04:50:37;;;;;;;17.90;12.33;;;3.30;97.30;;;;;;5075505;28;20470;-75
2021/01/13 04:53:11;;;;;;;17.20;12.00;;;3.30;97.20;;;;;;5077556;28;20454;-75
2021/01/13 04:55:46;;;;;;;22.10;11.93;;;3.30;97.20;;;;;;5077527;28;20445;-75
2021/01/13 04:58:52;;;;;;;19.80;12.87;;;3.30;97.30;;;;;;5076985;28;20823;-75
2021/01/13 05:02:03;;;;;;;19.20;12.93;;;3.30;97.40;;;;;;5054546;28;20985;-75
2021/01/13 05:04:55;;;;;;;20.97;13.13;;;3.30;97.40;;;;;;5077366;28;20428;-75
2021/01/13 05:07:30;;;;;;;19.80;12.90;;;3.30;97.40;;;;;;5076969;28;20436;-75
2021/01/13 05:10:00;;;;;;;30.03;14.93;;;3.30;97.80;;;;;;5076765;28;20449;-75
2021/01/13 05:12:33;;;;;;;22.27;13.60;;;3.20;97.50;;;;;;5077092;28;20445;-74
2021/01/13 05:15:01;;;;;;;28.13;13.73;;;3.30;97.60;;;;;;5076731;28;20482;-75
2021/01/13 05:17:33;;;;;;;18.40;13.87;;;3.30;97.50;;;;;;5077061;28;20447;-75
2021/01/13 05:20:24;;;;;;;26.27;13.53;;;3.30;97.60;;;;;;5076599;28;20503;-75
2021/01/13 05:22:53;;;;;;;22.60;14.37;;;3.30;97.50;;;;;;5077459;28;20436;-75
2021/01/13 05:25:39;;;;;;;23.20;14.27;;;3.30;97.90;;;;;;5076861;28;20443;-75
2021/01/13 05:28:11;;;;;;;16.77;13.27;;;3.30;97.60;;;;;;5076832;28;20502;-74
2021/01/13 05:30:39;;;;;;;28.70;15.40;;;3.30;97.60;;;;;;5076722;28;20471;-74
2021/01/13 05:33:08;;;;;;;21.00;13.70;;;3.30;97.60;;;;;;5076783;28;20946;-73
2021/01/13 05:35:38;;;;;;;19.17;13.47;;;3.20;97.70;;;;;;5076740;28;20445;-73
2021/01/13 05:38:12;;;;;;;23.90;15.60;;;3.30;97.80;;;;;;5076689;28;20438;-73
2021/01/13 05:40:43;;;;;;;21.57;13.70;;;3.30;97.80;;;;;;5076660;28;20456;-73
2021/01/13 05:43:10;;;;;;;22.70;13.43;;;3.30;97.80;;;;;;5076749;28;20503;-73
2021/01/13 05:45:38;;;;;;;22.10;13.30;;;3.30;97.80;;;;;;5076853;28;20447;-73
2021/01/13 05:48:16;;;;;;;23.30;12.90;;;3.30;97.80;;;;;;5076382;28;20547;-73
2021/01/13 05:50:44;;;;;;;19.90;12.57;;;3.30;97.70;;;;;;5076370;28;20460;-74
2021/01/13 05:53:12;;;;;;;22.90;13.23;;;3.30;97.60;;;;;;5076603;28;20449;-75
2021/01/13 05:55:46;;;;;;;24.97;13.27;;;3.30;97.60;;;;;;5076933;28;20454;-76
2021/01/13 05:58:13;;;;;;;23.03;14.40;;;3.30;97.60;;;;;;5076384;28;20427;-75
2021/01/13 06:00:40;;;;;;;15.37;13.50;;;3.20;97.60;;;;;;5076254;28;20471;-75
2021/01/13 06:03:10;;;;;;;21.90;14.97;;;3.30;97.80;;;;;;5076142;28;20443;-74
2021/01/13 06:05:48;;;;;;;34.30;14.10;;;3.20;97.90;;;;;;5076114;28;20444;-75
2021/01/13 06:08:17;;;;;;;20.83;14.37;;;3.20;98.10;;;;;;5076094;28;20463;-75
2021/01/13 06:10:44;;;;;;;29.43;15.23;;;3.20;98.20;;;;;;5075818;28;20469;-75
2021/01/13 06:13:17;;;;;;;24.90;14.70;;;3.20;98.30;;;;;;5076738;28;20444;-75
2021/01/13 06:15:45;;;;;;;21.30;14.63;;;3.10;98.20;;;;;;5076020;28;20460;-74
2021/01/13 06:18:15;;;;;;;27.70;15.57;;;3.20;98.20;;;;;;5075904;28;20441;-74
2021/01/13 06:20:42;;;;;;;23.10;15.00;;;3.20;98.10;;;;;;5075768;28;20878;-75
2021/01/13 06:23:12;;;;;;;21.40;15.30;;;3.20;98.10;;;;;;5075713;28;20436;-75
2021/01/13 06:25:41;;;;;;;25.43;14.50;;;3.20;98.00;;;;;;5075601;28;20451;-75
2021/01/13 06:28:24;;;;;;;21.60;14.67;;;3.20;97.90;;;;;;5075998;28;20458;-75
2021/01/13 06:31:02;;;;;;;23.13;14.90;;;3.20;97.90;;;;;;5075575;28;20470;-75
2021/01/13 06:33:34;;;;;;;21.20;13.33;;;3.20;97.90;;;;;;5075987;28;20509;-75
2021/01/13 06:36:34;;;;;;;20.83;13.33;;;3.20;97.80;;;;;;5076009;28;20467;-74
2021/01/13 06:39:04;;;;;;;27.17;14.93;;;3.20;97.90;;;;;;5072088;28;21001;-75
2021/01/13 06:41:44;;;;;;;19.47;13.50;;;3.20;97.90;;;;;;5075399;28;20471;-75
2021/01/13 06:44:10;;;;;;;26.00;15.43;;;3.20;97.70;;;;;;5077219;28;20481;-75
2021/01/13 06:46:37;;;;;;;24.63;15.00;;;3.20;97.70;;;;;;5075112;28;20945;-76
2021/01/13 06:49:14;;;;;;;24.20;13.80;;;3.20;97.70;;;;;;5075488;28;20442;-76
2021/01/13 06:51:43;;;;;;;27.23;14.87;;;3.10;97.70;;;;;;5074922;28;20467;-75
2021/01/13 06:54:12;;;;;;;26.17;15.50;;;3.10;97.70;;;;;;5075197;28;20478;-76
2021/01/13 06:56:48;;;;;;;31.63;16.20;;;3.10;97.70;;;;;;5075123;28;20470;-75
2021/01/13 06:59:15;;;;;;;23.13;15.33;;;3.10;97.90;;;;;;5074986;28;20465;-76
2021/01/13 07:01:49;;;;;;;20.97;13.43;;;3.00;97.80;;;;;;5074957;28;20476;-76
2021/01/13 07:04:16;;;;;;;26.20;15.37;;;3.10;97.90;;;;;;5075297;28;20499;-76
2021/01/13 07:06:57;;;;;;;24.00;15.93;;;3.00;97.90;;;;;;5075012;28;20770;-76
2021/01/13 07:09:23;;;;;;;25.17;15.23;;;3.10;97.90;;;;;;5074808;28;20477;-76
2021/01/13 07:11:51;;;;;;;18.60;14.70;;;3.10;97.80;;;;;;5074151;28;20892;-76
2021/01/13 07:14:18;;;;;;;20.30;15.10;;;3.10;97.80;;;;;;5075330;28;20471;-76
2021/01/13 07:16:45;;;;;;;27.43;13.23;;;3.10;97.80;;;;;;5074713;28;20480;-76
2021/01/13 07:19:11;;;;;;;25.23;14.70;;;3.00;97.80;;;;;;5074838;28;20480;-76
2021/01/13 07:21:39;;;;;;;22.03;13.57;;;3.00;97.90;;;;;;5074532;28;20471;-76
2021/01/13 07:24:15;;;;;;;23.53;13.90;;;3.00;97.90;;;;;;5074515;28;20448;-76
2021/01/13 07:26:43;;;;;;;25.50;13.53;;;3.10;97.90;;;;;;5074524;28;20441;-75
2021/01/13 07:29:11;;;;;;;23.00;13.53;;;3.10;97.80;;;;;;5074460;28;20447;-75
2021/01/13 07:31:38;;;;;;;22.00;13.77;;;3.10;97.70;;;;;;5074393;28;20470;-76
2021/01/13 07:34:11;;;;;;;16.70;12.70;;;3.10;97.70;;;;;;5074364;28;20452;-76
2021/01/13 07:36:40;;;;;;;18.63;13.90;;;3.00;97.70;;;;;;5074352;28;20436;-76
2021/01/13 07:39:08;;;;;;;25.67;14.07;;;3.00;97.70;;;;;;5074456;28;20464;-76
2021/01/13 07:42:12;;;;;;;23.30;13.30;;;3.00;97.70;;;;;;5074112;28;20466;-76
2021/01/13 07:44:42;;;;;;;20.50;13.37;;;3.00;97.70;;;;;;5074274;28;20438;-76
2021/01/13 07:47:27;;;;;;;25.60;14.00;;;3.00;97.60;;;;;;5074216;28;20428;-76
2021/01/13 07:50:08;;;;;;;22.53;12.90;;;3.00;97.60;;;;;;5074018;28;20458;-74
2021/01/13 07:52:41;;;;;;;27.17;13.80;;;3.00;97.60;;;;;;5074116;28;20431;-75
2021/01/13 07:55:15;;;;;;;21.87;14.43;;;3.00;97.70;;;;;;5074039;28;20533;-74
2021/01/13 07:57:47;;;;;;;27.83;14.27;;;3.00;97.70;;;;;;5073992;28;20463;-75
2021/01/13 08:00:27;;;;;;;26.53;13.30;;;3.00;97.80;;;;;;5073762;28;20464;-75
2021/01/13 08:03:32;;;;;;;33.20;13.93;;;3.00;97.80;;;;;;5073884;28;20801;-75
2021/01/13 08:06:30;;;;;;;21.67;13.47;;;2.90;97.90;;;;;;5073837;28;20482;-75
2021/01/13 08:09:12;;;;;;;43.27;15.10;;;2.90;98.00;;;;;;5073734;28;20489;-75
2021/01/13 08:12:39;;;;;;;21.77;13.80;;;3.00;98.00;;;;;;5073862;28;20568;-75
2021/01/13 08:15:47;;;;;;;27.57;14.07;;;3.00;98.00;;;;;;5073673;28;20499;-75
2021/01/13 08:18:55;;;;;;;25.30;14.27;;;3.00;97.90;;;;;;5073653;28;20450;-74
2021/01/13 08:21:27;;;;;;;22.43;12.43;;;3.00;98.00;;;;;;5073515;28;20464;-76
2021/01/13 08:23:59;;;;;;;21.50;14.07;;;3.00;98.10;;;;;;5072962;28;20437;-75
2021/01/13 08:26:26;;;;;;;25.40;12.57;;;3.00;98.10;;;;;;5073402;28;20436;-74
2021/01/13 08:28:56;;;;;;;18.40;12.03;;;3.00;98.10;;;;;;5073523;28;20815;-74
2021/01/13 08:31:24;;;;;;;20.97;13.70;;;3.10;98.10;;;;;;5073446;28;20472;-76
2021/01/13 08:34:04;;;;;;;23.97;12.60;;;3.20;98.00;;;;;;5073475;28;20535;-74
2021/01/13 08:36:31;;;;;;;18.70;11.87;;;3.20;97.80;;;;;;5073499;28;20436;-74
2021/01/13 08:39:09;;;;;;;22.33;12.50;;;3.30;97.70;;;;;;5073407;28;20484;-74
2021/01/13 08:41:36;;;;;;;17.83;11.97;;;3.30;97.70;;;;;;5073339;28;20865;-75
2021/01/13 08:44:09;;;;;;;22.33;12.27;;;3.30;97.60;;;;;;5073354;28;20501;-75
2021/01/13 08:46:42;;;;;;;19.20;12.43;;;3.30;97.50;;;;;;5073371;28;20494;-75
2021/01/13 08:49:10;;;;;;;23.10;12.93;;;3.30;97.50;;;;;;5073309;28;20787;-75
2021/01/13 08:51:36;;;;;;;17.60;12.90;;;3.40;97.60;;;;;;5072890;28;20497;-75
2021/01/13 08:54:22;;;;;;;18.60;11.80;;;3.40;97.50;;;;;;5072900;28;20962;-75
2021/01/13 08:56:56;;;;;;;17.47;11.47;;;3.40;97.40;;;;;;5073269;28;20438;-75
2021/01/13 08:59:37;;;;;;;24.93;12.00;;;3.50;97.30;;;;;;5073165;28;20475;-74
2021/01/13 09:02:07;;;;;;;16.77;11.20;;;3.50;97.40;;;;;;5073114;28;20529;-74
2021/01/13 09:04:48;;;;;;;20.70;10.90;;;3.60;97.40;;;;;;5073170;28;20543;-74
2021/01/13 09:07:16;;;;;;;17.70;11.77;;;3.60;97.30;;;;;;5073171;28;20437;-73
2021/01/13 09:09:51;;;;;;;22.20;12.00;;;3.70;97.10;;;;;;5073128;28;20443;-75
2021/01/13 09:12:39;;;;;;;16.50;10.70;;;3.80;97.00;;;;;;5073069;28;20466;-76
2021/01/13 09:15:18;;;;;;;13.40;9.70;;;3.80;96.80;;;;;;5067150;28;20879;-76
2021/01/13 09:17:50;;;;;;;16.10;10.77;;;4.00;96.80;;;;;;5072961;28;20514;-76
2021/01/13 09:20:21;;;;;;;19.50;10.57;;;4.00;96.70;;;;;;5072874;28;20488;-76
2021/01/13 09:22:50;;;;;;;16.97;10.60;;;4.00;96.50;;;;;;5073113;28;20859;-76
2021/01/13 09:25:18;;;;;;;24.47;11.90;;;4.00;96.40;;;;;;5072696;28;20944;-76
2021/01/13 09:27:46;;;;;;;15.47;9.93;;;4.00;96.50;;;;;;5072713;28;20952;-77
2021/01/13 09:30:35;;;;;;;20.27;10.30;;;4.10;96.60;;;;;;5072878;28;20453;-76
2021/01/13 09:33:07;;;;;;;15.17;10.73;;;4.10;96.40;;;;;;5072980;28;20437;-76
2021/01/13 09:35:37;;;;;;;16.77;9.77;;;4.20;96.50;;;;;;5073662;28;20429;-76
2021/01/13 09:38:08;;;;;;;15.53;10.60;;;4.20;96.30;;;;;;5076697;28;20436;-76
2021/01/13 09:40:55;;;;;;;13.47;10.50;;;4.30;96.20;;;;;;5076154;28;20999;-76
2021/01/13 09:43:25;;;;;;;21.50;11.43;;;4.50;96.20;;;;;;5076618;28;20444;-76
2021/01/13 09:45:52;;;;;;;18.27;10.63;;;4.60;96.00;;;;;;5076207;28;20846;-76
2021/01/13 09:48:19;;;;;;;20.33;10.33;;;4.70;95.90;;;;;;5076333;28;20445;-77
2021/01/13 09:50:58;;;;;;;13.90;9.70;;;4.90;96.00;;;;;;5076353;28;20464;-77
2021/01/13 09:53:29;;;;;;;16.00;10.57;;;5.00;95.30;;;;;;5076571;28;20766;-76
2021/01/13 09:56:03;;;;;;;15.43;10.57;;;5.10;95.10;;;;;;5076318;28;20425;-76
2021/01/13 09:58:37;;;;;;;16.27;9.93;;;5.10;94.60;;;;;;5076305;28;20790;-76
2021/01/13 10:01:07;;;;;;;14.73;10.33;;;5.10;94.80;;;;;;5076206;28;20464;-74
2021/01/13 10:03:34;;;;;;;16.07;11.23;;;5.10;94.80;;;;;;5076168;28;20502;-76
2021/01/13 10:06:02;;;;;;;14.50;11.00;;;5.00;94.60;;;;;;5076789;28;20479;-76
2021/01/13 10:08:32;;;;;;;18.33;10.60;;;5.00;94.90;;;;;;5076638;28;20452;-76
2021/01/13 10:11:01;;;;;;;19.10;11.53;;;5.00;94.90;;;;;;5075838;28;20481;-76
2021/01/13 10:13:29;;;;;;;20.00;11.03;;;4.90;95.00;;;;;;5075698;28;20855;-76
2021/01/13 10:16:00;;;;;;;15.47;9.97;;;5.00;95.10;;;;;;5075945;28;20460;-76
2021/01/13 10:18:27;;;;;;;16.40;11.27;;;5.00;94.90;;;;;;5075960;28;20417;-76
2021/01/13 10:20:57;;;;;;;18.60;11.80;;;5.00;94.80;;;;;;5075641;28;20551;-76
2021/01/13 10:23:27;;;;;;;14.17;10.73;;;4.90;94.90;;;;;;5075869;28;20444;-76
2021/01/13 10:26:05;;;;;;;17.50;11.83;;;4.90;95.00;;;;;;5075835;28;20433;-76
2021/01/13 10:28:32;;;;;;;22.67;12.20;;;4.90;95.10;;;;;;5075691;28;20432;-76
2021/01/13 10:30:59;;;;;;;17.80;12.10;;;4.90;95.20;;;;;;5075277;28;20990;-76
2021/01/13 10:33:47;;;;;;;29.13;12.43;;;4.90;95.40;;;;;;5075603;28;20445;-76
2021/01/13 10:36:32;;;;;;;22.03;10.87;;;4.90;95.60;;;;;;5075573;28;20557;-76
2021/01/13 10:39:00;;;;;;;22.90;11.70;;;5.00;95.80;;;;;;5075474;28;20465;-76
2021/01/13 10:41:30;;;;;;;24.63;13.27;;;5.00;95.60;;;;;;5075400;28;20464;-76
2021/01/13 10:44:02;;;;;;;25.13;12.60;;;5.10;95.60;;;;;;5075444;28;20425;-76
2021/01/13 10:46:41;;;;;;;22.23;12.23;;;5.20;95.50;;;;;;5075305;28;20794;-76
2021/01/13 10:49:15;;;;;;;15.70;10.93;;;5.20;95.40;;;;;;5074781;28;20436;-76
2021/01/13 10:51:47;;;;;;;12.83;10.30;;;5.20;95.30;;;;;;5075193;28;20517;-77
2021/01/13 10:54:17;;;;;;;20.03;12.60;;;5.20;95.40;;;;;;5075245;28;20437;-76
2021/01/13 10:56:44;;;;;;;20.37;11.90;;;5.20;95.40;;;;;;5075150;28;20425;-76
2021/01/13 10:59:15;;;;;;;24.30;12.90;;;5.20;95.30;;;;;;5075035;28;21003;-76
2021/01/13 11:01:46;;;;;;;18.63;11.90;;;5.30;95.50;;;;;;5074998;28;20465;-76
2021/01/13 11:04:30;;;;;;;19.33;11.23;;;5.40;95.30;;;;;;5075000;28;20433;-77
2021/01/13 11:06:58;;;;;;;24.80;12.20;;;5.40;95.10;;;;;;5074934;28;20439;-76
2021/01/13 11:09:26;;;;;;;17.93;11.33;;;5.40;95.30;;;;;;5074804;28;20441;-76
2021/01/13 11:11:53;;;;;;;24.97;12.80;;;5.40;95.00;;;;;;5074538;28;20993;-76
2021/01/13 11:14:39;;;;;;;15.93;10.20;;;5.50;95.20;;;;;;5074798;28;20441;-76
2021/01/13 11:17:09;;;;;;;21.73;10.87;;;5.50;95.00;;;;;;5074711;28;20437;-76
2021/01/13 11:19:37;;;;;;;13.80;10.80;;;5.60;94.80;;;;;;5074499;28;20480;-76
2021/01/13 11:22:04;;;;;;;15.33;10.83;;;5.60;94.70;;;;;;5074200;28;20993;-75
2021/01/13 11:24:40;;;;;;;21.60;11.03;;;5.70;94.70;;;;;;5074617;28;20428;-76
2021/01/13 11:27:09;;;;;;;19.83;11.70;;;5.70;94.50;;;;;;5074179;28;20802;-75
2021/01/13 11:29:37;;;;;;;20.80;10.20;;;5.80;94.40;;;;;;5074280;28;20965;-75
2021/01/13 11:32:05;;;;;;;14.63;9.77;;;5.90;93.90;;;;;;5074318;28;20461;-75
2021/01/13 11:34:32;;;;;;;20.30;10.83;;;5.90;93.80;;;;;;5074213;28;20448;-75
2021/01/13 11:37:40;;;;;;;16.90;9.90;;;6.00;93.70;;;;;;5074257;28;20444;-76
2021/01/13 11:40:40;;;;;;;17.33;10.40;;;6.00;93.70;;;;;;5074144;28;20480;-75
2021/01/13 11:43:41;;;;;;;15.80;8.37;;;5.90;93.30;;;;;;5067358;28;20456;-75
2021/01/13 11:46:13;;;;;;;19.40;8.53;;;5.90;93.30;;;;;;5074156;28;20455;-75
2021/01/13 11:49:03;;;;;;;21.17;9.47;;;5.80;93.20;;;;;;5074166;28;20425;-75
2021/01/13 11:51:32;;;;;;;17.37;9.30;;;5.80;93.10;;;;;;5073670;28;20543;-75
2021/01/13 11:53:59;;;;;;;12.70;8.00;;;5.80;93.20;;;;;;5073752;28;20898;-75
2021/01/13 11:56:30;;;;;;;14.37;8.07;;;5.70;93.30;;;;;;5073651;28;21015;-76
2021/01/13 11:58:57;;;;;;;13.67;8.23;;;5.60;93.60;;;;;;5073396;28;20445;-76
2021/01/13 12:01:25;;;;;;;16.53;9.10;;;5.60;93.50;;;;;;5074043;28;20491;-76
2021/01/13 12:04:01;;;;;;;16.10;9.20;;;5.60;93.60;;;;;;5073857;28;20444;-76
2021/01/13 12:06:27;;;;;;;13.40;9.10;;;5.60;93.60;;;;;;5073819;28;20429;-75
2021/01/13 12:08:54;;;;;;;12.73;8.27;;;5.70;93.40;;;;;;5074103;28;20432;-75
2021/01/13 12:11:21;;;;;;;18.50;8.40;;;5.70;93.20;;;;;;5073496;28;20472;-75
2021/01/13 12:13:49;;;;;;;11.93;7.37;;;5.80;92.80;;;;;;5073826;28;20467;-75
2021/01/13 12:16:17;;;;;;;15.33;8.60;;;5.90;92.10;;;;;;5074035;28;20468;-76
2021/01/13 12:18:47;;;;;;;15.80;8.07;;;6.00;92.00;;;;;;5073731;28;20433;-75
2021/01/13 12:21:31;;;;;;;12.53;7.10;;;6.00;91.80;;;;;;5073611;28;20456;-75
2021/01/13 12:23:58;;;;;;;15.33;8.40;;;6.00;92.00;;;;;;5073637;28;20424;-75
2021/01/13 12:26:29;;;;;;;8.07;7.20;;;6.00;92.20;;;;;;5073523;28;20499;-75
2021/01/13 12:28:58;;;;;;;14.43;8.00;;;5.90;92.10;;;;;;5073810;28;20429;-76
2021/01/13 12:31:33;;;;;;;12.40;8.60;;;5.90;92.40;;;;;;5073497;28;20515;-75
2021/01/13 12:34:00;;;;;;;17.30;8.93;;;5.90;92.70;;;;;;5073532;28;20455;-75
2021/01/13 12:36:28;;;;;;;17.63;8.23;;;5.90;92.60;;;;;;5073384;28;20451;-76
2021/01/13 12:38:55;;;;;;;18.50;8.70;;;5.90;92.80;;;;;;5073339;28;20832;-76
2021/01/13 12:41:24;;;;;;;12.67;7.03;;;6.10;92.60;;;;;;5073835;28;20485;-75
2021/01/13 12:43:51;;;;;;;13.47;7.67;;;6.20;90.90;;;;;;5073384;28;20445;-76
2021/01/13 12:46:29;;;;;;;11.67;7.10;;;6.30;90.60;;;;;;5073359;28;20455;-75
2021/01/13 12:48:56;;;;;;;10.40;7.10;;;6.30;90.50;;;;;;5073034;28;20451;-75
2021/01/13 12:51:22;;;;;;;12.10;8.60;;;6.60;90.70;;;;;;5073281;28;20468;-76
2021/01/13 12:53:48;;;;;;;7.90;5.70;;;6.80;90.30;;;;;;5073899;28;20432;-75
2021/01/13 12:56:25;;;;;;;12.03;6.40;;;7.00;88.20;;;;;;5072961;28;20933;-75
2021/01/13 12:58:52;;;;;;;12.10;6.73;;;7.10;87.30;;;;;;5072942;28;20902;-75
2021/01/13 13:01:18;;;;;;;13.37;7.37;;;7.30;87.30;;;;;;5073143;28;20473;-76
2021/01/13 13:03:47;;;;;;;12.20;6.60;;;7.30;86.80;;;;;;5073212;28;20448;-76
2021/01/13 13:06:14;;;;;;;11.93;6.93;;;7.30;86.40;;;;;;5073243;28;20456;-76
2021/01/13 13:08:40;;;;;;;18.07;7.30;;;7.40;86.50;;;;;;5073257;28;20433;-76
2021/01/13 13:11:10;;;;;;;15.13;7.60;;;7.60;85.20;;;;;;5074607;28;20491;-76